sensor_id;sensor_type;location;lat;lon;timestamp;temperature;humidity
41310;DHT22;27057;51.438;-0.010;2022-07-05T00:00:54;17.00;99.90
41310;DHT22;27057;51.438;-0.010;2022-07-05T00:03:21;17.80;99.90
41310;DHT22;27057;51.438;-0.010;2022-07-05T00:05:49;16.90;99.90
41310;DHT22;27057;51.438;-0.010;2022-07-05T00:08:17;17.00;99.90
41310;DHT22;27057;51.438;-0.010;2022-07-05T00:10:44;17.10;99.90
41310;DHT22;27057;51.438;-0.010;2022-07-05T00:13:12;16.80;99.90
41310;DHT22;27057;51.438;-0.010;2022-07-05T00:15:39;16.80;99.90
41310;DHT22;27057;51.438;-0.010;2022-07-05T00:18:07;16.70;99.90
41310;DHT22;27057;51.438;-0.010;2022-07-05T00:20:35;17.00;99.90
41310;DHT22;27057;51.438;-0.010;2022-07-05T00:23:02;16.80;99.90
41310;DHT22;27057;51.438;-0.010;2022-07-05T00:25:29;16.70;99.90
41310;DHT22;27057;51.438;-0.010;2022-07-05T00:27:57;16.70;99.90
41310;DHT22;27057;51.438;-0.010;2022-07-05T00:30:24;17.00;99.90
41310;DHT22;27057;51.438;-0.010;2022-07-05T00:32:51;16.60;99.90
41310;DHT22;27057;51.438;-0.010;2022-07-05T00:35:19;17.60;99.90
41310;DHT22;27057;51.438;-0.010;2022-07-05T00:37:46;16.80;99.90
41310;DHT22;27057;51.438;-0.010;2022-07-05T00:40:13;16.80;99.90
41310;DHT22;27057;51.438;-0.010;2022-07-05T00:42:41;16.70;99.90
41310;DHT22;27057;51.438;-0.010;2022-07-05T00:45:09;16.40;99.90
41310;DHT22;27057;51.438;-0.010;2022-07-05T00:47:36;16.40;99.90
41310;DHT22;27057;51.438;-0.010;2022-07-05T00:50:04;16.80;99.90
41310;DHT22;27057;51.438;-0.010;2022-07-05T00:52:32;16.40;99.90
41310;DHT22;27057;51.438;-0.010;2022-07-05T00:54:59;16.00;99.90
41310;DHT22;27057;51.438;-0.010;2022-07-05T00:57:27;16.60;99.90
41310;DHT22;27057;51.438;-0.010;2022-07-05T00:59:54;16.40;99.90
41310;DHT22;27057;51.438;-0.010;2022-07-05T01:02:22;16.50;99.90
41310;DHT22;27057;51.438;-0.010;2022-07-05T01:04:51;16.30;99.90
41310;DHT22;27057;51.438;-0.010;2022-07-05T01:07:21;16.20;99.90
41310;DHT22;27057;51.438;-0.010;2022-07-05T01:09:49;16.10;99.90
41310;DHT22;27057;51.438;-0.010;2022-07-05T01:12:17;16.30;99.90
41310;DHT22;27057;51.438;-0.010;2022-07-05T01:14:45;16.30;99.90
41310;DHT22;27057;51.438;-0.010;2022-07-05T01:17:15;16.80;99.90
41310;DHT22;27057;51.438;-0.010;2022-07-05T01:19:43;16.20;99.90
41310;DHT22;27057;51.438;-0.010;2022-07-05T01:22:16;16.00;99.90
41310;DHT22;27057;51.438;-0.010;2022-07-05T01:24:47;15.90;99.90
41310;DHT22;27057;51.438;-0.010;2022-07-05T01:27:14;16.10;99.90
41310;DHT22;27057;51.438;-0.010;2022-07-05T01:29:43;15.90;99.90
41310;DHT22;27057;51.438;-0.010;2022-07-05T01:32:10;17.10;99.90
41310;DHT22;27057;51.438;-0.010;2022-07-05T01:34:39;15.90;99.90
41310;DHT22;27057;51.438;-0.010;2022-07-05T01:37:08;16.80;99.90
41310;DHT22;27057;51.438;-0.010;2022-07-05T01:39:36;16.10;99.90
41310;DHT22;27057;51.438;-0.010;2022-07-05T01:42:05;15.80;99.90
41310;DHT22;27057;51.438;-0.010;2022-07-05T01:44:32;15.80;99.90
41310;DHT22;27057;51.438;-0.010;2022-07-05T01:47:04;16.10;99.90
41310;DHT22;27057;51.438;-0.010;2022-07-05T01:49:41;15.70;99.90
41310;DHT22;27057;51.438;-0.010;2022-07-05T01:52:12;15.70;99.90
41310;DHT22;27057;51.438;-0.010;2022-07-05T01:54:41;16.50;99.90
41310;DHT22;27057;51.438;-0.010;2022-07-05T01:57:09;16.10;99.90
41310;DHT22;27057;51.438;-0.010;2022-07-05T01:59:37;15.80;99.90
41310;DHT22;27057;51.438;-0.010;2022-07-05T02:02:06;15.80;99.90
41310;DHT22;27057;51.438;-0.010;2022-07-05T02:04:35;16.00;99.90
41310;DHT22;27057;51.438;-0.010;2022-07-05T02:07:07;15.90;99.90
41310;DHT22;27057;51.438;-0.010;2022-07-05T02:09:36;15.40;99.90
41310;DHT22;27057;51.438;-0.010;2022-07-05T02:12:04;15.80;99.90
41310;DHT22;27057;51.438;-0.010;2022-07-05T02:14:33;15.40;99.90
41310;DHT22;27057;51.438;-0.010;2022-07-05T02:17:04;16.40;99.90
41310;DHT22;27057;51.438;-0.010;2022-07-05T02:19:35;15.20;99.90
41310;DHT22;27057;51.438;-0.010;2022-07-05T02:22:05;15.00;99.90
41310;DHT22;27057;51.438;-0.010;2022-07-05T02:24:33;15.60;99.90
41310;DHT22;27057;51.438;-0.010;2022-07-05T02:27:11;14.90;99.90
41310;DHT22;27057;51.438;-0.010;2022-07-05T02:29:39;15.40;99.90
41310;DHT22;27057;51.438;-0.010;2022-07-05T02:32:07;14.90;99.90
41310;DHT22;27057;51.438;-0.010;2022-07-05T02:34:34;14.80;99.90
41310;DHT22;27057;51.438;-0.010;2022-07-05T02:37:02;14.70;99.90
41310;DHT22;27057;51.438;-0.010;2022-07-05T02:39:30;14.80;99.90
41310;DHT22;27057;51.438;-0.010;2022-07-05T02:41:59;14.50;99.90
41310;DHT22;27057;51.438;-0.010;2022-07-05T02:44:27;14.90;99.90
41310;DHT22;27057;51.438;-0.010;2022-07-05T02:46:54;15.40;99.90
41310;DHT22;27057;51.438;-0.010;2022-07-05T02:49:23;14.90;99.90
41310;DHT22;27057;51.438;-0.010;2022-07-05T02:51:52;14.70;99.90
41310;DHT22;27057;51.438;-0.010;2022-07-05T02:54:20;14.70;99.90
41310;DHT22;27057;51.438;-0.010;2022-07-05T02:56:47;14.60;99.90
41310;DHT22;27057;51.438;-0.010;2022-07-05T02:59:16;15.90;99.90
41310;DHT22;27057;51.438;-0.010;2022-07-05T03:01:44;14.60;99.90
41310;DHT22;27057;51.438;-0.010;2022-07-05T03:04:14;14.80;99.90
41310;DHT22;27057;51.438;-0.010;2022-07-05T03:06:49;14.20;99.90
41310;DHT22;27057;51.438;-0.010;2022-07-05T03:09:21;14.80;99.90
41310;DHT22;27057;51.438;-0.010;2022-07-05T03:11:48;14.70;99.90
41310;DHT22;27057;51.438;-0.010;2022-07-05T03:14:16;15.00;99.90
41310;DHT22;27057;51.438;-0.010;2022-07-05T03:16:45;14.40;99.90
41310;DHT22;27057;51.438;-0.010;2022-07-05T03:19:13;14.40;99.90
41310;DHT22;27057;51.438;-0.010;2022-07-05T03:21:41;14.70;99.90
41310;DHT22;27057;51.438;-0.010;2022-07-05T03:24:09;14.50;99.90
41310;DHT22;27057;51.438;-0.010;2022-07-05T03:26:39;14.60;99.90
41310;DHT22;27057;51.438;-0.010;2022-07-05T03:29:06;14.30;99.90
41310;DHT22;27057;51.438;-0.010;2022-07-05T03:31:34;14.30;99.90
41310;DHT22;27057;51.438;-0.010;2022-07-05T03:34:04;14.70;99.90
41310;DHT22;27057;51.438;-0.010;2022-07-05T03:36:32;14.30;99.90
41310;DHT22;27057;51.438;-0.010;2022-07-05T03:39:03;14.20;99.90
41310;DHT22;27057;51.438;-0.010;2022-07-05T03:41:32;14.60;99.90
41310;DHT22;27057;51.438;-0.010;2022-07-05T03:44:00;14.80;99.90
41310;DHT22;27057;51.438;-0.010;2022-07-05T03:46:28;14.40;99.90
41310;DHT22;27057;51.438;-0.010;2022-07-05T03:48:56;14.20;99.90
41310;DHT22;27057;51.438;-0.010;2022-07-05T03:51:23;14.70;99.90
41310;DHT22;27057;51.438;-0.010;2022-07-05T03:53:52;14.30;99.90
41310;DHT22;27057;51.438;-0.010;2022-07-05T03:56:21;14.20;99.90
41310;DHT22;27057;51.438;-0.010;2022-07-05T03:58:52;14.50;99.90
41310;DHT22;27057;51.438;-0.010;2022-07-05T04:01:19;14.40;99.90
41310;DHT22;27057;51.438;-0.010;2022-07-05T04:03:47;14.30;99.90
41310;DHT22;27057;51.438;-0.010;2022-07-05T04:06:16;14.10;99.90
41310;DHT22;27057;51.438;-0.010;2022-07-05T04:08:44;14.00;99.90
41310;DHT22;27057;51.438;-0.010;2022-07-05T04:11:12;14.50;99.90
41310;DHT22;27057;51.438;-0.010;2022-07-05T04:13:43;14.00;99.90
41310;DHT22;27057;51.438;-0.010;2022-07-05T04:16:11;14.00;99.90
41310;DHT22;27057;51.438;-0.010;2022-07-05T04:18:39;13.90;99.90
41310;DHT22;27057;51.438;-0.010;2022-07-05T04:21:06;14.40;99.90
41310;DHT22;27057;51.438;-0.010;2022-07-05T04:23:34;13.90;99.90
41310;DHT22;27057;51.438;-0.010;2022-07-05T04:26:03;13.90;99.90
41310;DHT22;27057;51.438;-0.010;2022-07-05T04:28:35;14.20;99.90
41310;DHT22;27057;51.438;-0.010;2022-07-05T04:31:06;14.20;99.90
41310;DHT22;27057;51.438;-0.010;2022-07-05T04:33:38;13.90;99.90
41310;DHT22;27057;51.438;-0.010;2022-07-05T04:36:07;13.90;99.90
41310;DHT22;27057;51.438;-0.010;2022-07-05T04:38:35;13.80;99.90
41310;DHT22;27057;51.438;-0.010;2022-07-05T04:41:04;13.80;99.90
41310;DHT22;27057;51.438;-0.010;2022-07-05T04:43:33;13.70;99.90
41310;DHT22;27057;51.438;-0.010;2022-07-05T04:46:04;14.60;99.90
41310;DHT22;27057;51.438;-0.010;2022-07-05T04:48:31;13.90;99.90
41310;DHT22;27057;51.438;-0.010;2022-07-05T04:50:59;13.20;99.90
41310;DHT22;27057;51.438;-0.010;2022-07-05T04:53:29;14.00;99.90
41310;DHT22;27057;51.438;-0.010;2022-07-05T04:55:56;14.00;99.90
41310;DHT22;27057;51.438;-0.010;2022-07-05T04:58:25;13.80;99.90
41310;DHT22;27057;51.438;-0.010;2022-07-05T05:00:52;13.70;99.90
41310;DHT22;27057;51.438;-0.010;2022-07-05T05:03:20;14.10;99.90
41310;DHT22;27057;51.438;-0.010;2022-07-05T05:05:48;13.90;99.90
41310;DHT22;27057;51.438;-0.010;2022-07-05T05:08:15;13.70;99.90
41310;DHT22;27057;51.438;-0.010;2022-07-05T05:10:42;14.00;99.90
41310;DHT22;27057;51.438;-0.010;2022-07-05T05:13:10;13.70;99.90
41310;DHT22;27057;51.438;-0.010;2022-07-05T05:15:37;14.30;99.90
41310;DHT22;27057;51.438;-0.010;2022-07-05T05:18:05;14.60;99.90
41310;DHT22;27057;51.438;-0.010;2022-07-05T05:20:32;14.10;99.90
41310;DHT22;27057;51.438;-0.010;2022-07-05T05:23:06;14.00;99.90
41310;DHT22;27057;51.438;-0.010;2022-07-05T05:25:34;13.90;99.90
41310;DHT22;27057;51.438;-0.010;2022-07-05T05:28:03;14.10;99.90
41310;DHT22;27057;51.438;-0.010;2022-07-05T05:30:30;14.20;99.90
41310;DHT22;27057;51.438;-0.010;2022-07-05T05:32:58;14.60;99.90
41310;DHT22;27057;51.438;-0.010;2022-07-05T05:35:25;14.30;99.90
41310;DHT22;27057;51.438;-0.010;2022-07-05T05:37:54;14.60;99.90
41310;DHT22;27057;51.438;-0.010;2022-07-05T05:40:24;14.80;99.90
41310;DHT22;27057;51.438;-0.010;2022-07-05T05:42:52;14.80;99.90
41310;DHT22;27057;51.438;-0.010;2022-07-05T05:45:20;14.50;99.90
41310;DHT22;27057;51.438;-0.010;2022-07-05T05:47:49;14.90;99.90
41310;DHT22;27057;51.438;-0.010;2022-07-05T05:50:22;14.40;99.90
41310;DHT22;27057;51.438;-0.010;2022-07-05T05:52:50;14.70;99.90
41310;DHT22;27057;51.438;-0.010;2022-07-05T05:55:18;14.40;99.90
41310;DHT22;27057;51.438;-0.010;2022-07-05T05:57:46;14.80;99.90
41310;DHT22;27057;51.438;-0.010;2022-07-05T06:00:15;15.10;99.90
41310;DHT22;27057;51.438;-0.010;2022-07-05T06:02:45;14.80;99.90
41310;DHT22;27057;51.438;-0.010;2022-07-05T06:05:13;15.10;99.90
41310;DHT22;27057;51.438;-0.010;2022-07-05T06:07:50;15.10;99.90
41310;DHT22;27057;51.438;-0.010;2022-07-05T06:10:20;14.90;99.90
41310;DHT22;27057;51.438;-0.010;2022-07-05T06:12:49;15.00;99.90
41310;DHT22;27057;51.438;-0.010;2022-07-05T06:15:17;15.10;99.90
41310;DHT22;27057;51.438;-0.010;2022-07-05T06:17:45;15.10;99.90
41310;DHT22;27057;51.438;-0.010;2022-07-05T06:20:19;15.70;99.90
41310;DHT22;27057;51.438;-0.010;2022-07-05T06:22:47;15.20;99.90
41310;DHT22;27057;51.438;-0.010;2022-07-05T06:25:14;15.80;99.90
41310;DHT22;27057;51.438;-0.010;2022-07-05T06:27:53;15.40;99.90
41310;DHT22;27057;51.438;-0.010;2022-07-05T06:30:22;15.40;99.90
41310;DHT22;27057;51.438;-0.010;2022-07-05T06:32:51;15.40;99.90
41310;DHT22;27057;51.438;-0.010;2022-07-05T06:35:19;15.50;99.90
41310;DHT22;27057;51.438;-0.010;2022-07-05T06:37:48;15.20;99.90
41310;DHT22;27057;51.438;-0.010;2022-07-05T06:40:23;15.70;99.90
41310;DHT22;27057;51.438;-0.010;2022-07-05T06:42:54;15.60;99.90
41310;DHT22;27057;51.438;-0.010;2022-07-05T06:45:28;16.00;99.90
41310;DHT22;27057;51.438;-0.010;2022-07-05T06:47:57;15.50;99.90
41310;DHT22;27057;51.438;-0.010;2022-07-05T06:50:26;15.70;99.90
41310;DHT22;27057;51.438;-0.010;2022-07-05T06:52:54;16.20;99.90
41310;DHT22;27057;51.438;-0.010;2022-07-05T06:55:22;16.00;99.90
41310;DHT22;27057;51.438;-0.010;2022-07-05T06:58:06;16.10;99.90
41310;DHT22;27057;51.438;-0.010;2022-07-05T07:00:38;16.20;99.90
41310;DHT22;27057;51.438;-0.010;2022-07-05T07:03:26;15.90;99.90
41310;DHT22;27057;51.438;-0.010;2022-07-05T07:06:13;16.30;99.90
41310;DHT22;27057;51.438;-0.010;2022-07-05T07:08:41;16.60;99.90
41310;DHT22;27057;51.438;-0.010;2022-07-05T07:11:27;16.80;99.90
41310;DHT22;27057;51.438;-0.010;2022-07-05T07:13:54;16.30;99.90
41310;DHT22;27057;51.438;-0.010;2022-07-05T07:16:22;16.30;99.90
41310;DHT22;27057;51.438;-0.010;2022-07-05T07:18:50;16.40;99.90
41310;DHT22;27057;51.438;-0.010;2022-07-05T07:21:37;16.50;99.90
41310;DHT22;27057;51.438;-0.010;2022-07-05T07:24:06;16.50;99.90
41310;DHT22;27057;51.438;-0.010;2022-07-05T07:26:34;16.40;99.90
41310;DHT22;27057;51.438;-0.010;2022-07-05T07:29:21;16.80;99.90
41310;DHT22;27057;51.438;-0.010;2022-07-05T07:31:49;16.60;99.90
41310;DHT22;27057;51.438;-0.010;2022-07-05T07:34:16;17.00;99.90
41310;DHT22;27057;51.438;-0.010;2022-07-05T07:36:44;16.60;99.90
41310;DHT22;27057;51.438;-0.010;2022-07-05T07:39:11;16.80;99.90
41310;DHT22;27057;51.438;-0.010;2022-07-05T07:41:38;17.20;99.90
41310;DHT22;27057;51.438;-0.010;2022-07-05T07:44:06;17.10;99.90
41310;DHT22;27057;51.438;-0.010;2022-07-05T07:46:33;17.20;99.90
41310;DHT22;27057;51.438;-0.010;2022-07-05T07:49:01;17.20;99.90
41310;DHT22;27057;51.438;-0.010;2022-07-05T07:51:29;17.00;99.90
41310;DHT22;27057;51.438;-0.010;2022-07-05T07:53:57;17.00;99.90
41310;DHT22;27057;51.438;-0.010;2022-07-05T07:56:38;17.00;99.90
41310;DHT22;27057;51.438;-0.010;2022-07-05T07:59:06;17.10;99.90
41310;DHT22;27057;51.438;-0.010;2022-07-05T08:01:33;17.30;99.90
41310;DHT22;27057;51.438;-0.010;2022-07-05T08:04:10;17.20;99.90
41310;DHT22;27057;51.438;-0.010;2022-07-05T08:06:38;17.30;99.90
41310;DHT22;27057;51.438;-0.010;2022-07-05T08:09:06;17.80;99.90
41310;DHT22;27057;51.438;-0.010;2022-07-05T08:11:41;17.70;99.90
41310;DHT22;27057;51.438;-0.010;2022-07-05T08:14:13;17.50;99.90
41310;DHT22;27057;51.438;-0.010;2022-07-05T08:16:44;17.60;99.90
41310;DHT22;27057;51.438;-0.010;2022-07-05T08:19:22;18.00;99.90
41310;DHT22;27057;51.438;-0.010;2022-07-05T08:22:16;17.70;99.90
41310;DHT22;27057;51.438;-0.010;2022-07-05T08:24:43;17.80;99.90
41310;DHT22;27057;51.438;-0.010;2022-07-05T08:27:12;17.80;99.60
41310;DHT22;27057;51.438;-0.010;2022-07-05T08:29:40;18.00;99.90
41310;DHT22;27057;51.438;-0.010;2022-07-05T08:32:07;18.30;99.90
41310;DHT22;27057;51.438;-0.010;2022-07-05T08:34:35;18.00;99.90
41310;DHT22;27057;51.438;-0.010;2022-07-05T08:37:03;17.80;99.90
41310;DHT22;27057;51.438;-0.010;2022-07-05T08:39:35;18.20;99.60
41310;DHT22;27057;51.438;-0.010;2022-07-05T08:42:03;18.00;99.50
41310;DHT22;27057;51.438;-0.010;2022-07-05T08:44:33;18.10;99.60
41310;DHT22;27057;51.438;-0.010;2022-07-05T08:47:02;18.50;99.90
41310;DHT22;27057;51.438;-0.010;2022-07-05T08:49:31;18.30;99.00
41310;DHT22;27057;51.438;-0.010;2022-07-05T08:52:02;18.50;99.00
41310;DHT22;27057;51.438;-0.010;2022-07-05T08:54:31;18.50;98.30
41310;DHT22;27057;51.438;-0.010;2022-07-05T08:56:59;18.70;97.50
41310;DHT22;27057;51.438;-0.010;2022-07-05T08:59:38;19.00;97.80
41310;DHT22;27057;51.438;-0.010;2022-07-05T09:02:05;18.60;98.00
41310;DHT22;27057;51.438;-0.010;2022-07-05T09:04:35;18.90;98.30
41310;DHT22;27057;51.438;-0.010;2022-07-05T09:07:05;19.00;98.40
41310;DHT22;27057;51.438;-0.010;2022-07-05T09:09:38;19.00;98.10
41310;DHT22;27057;51.438;-0.010;2022-07-05T09:12:14;19.20;98.70
41310;DHT22;27057;51.438;-0.010;2022-07-05T09:14:49;18.90;98.40
41310;DHT22;27057;51.438;-0.010;2022-07-05T09:17:17;18.80;98.60
41310;DHT22;27057;51.438;-0.010;2022-07-05T09:20:04;19.00;97.90
41310;DHT22;27057;51.438;-0.010;2022-07-05T09:22:42;18.90;97.00
41310;DHT22;27057;51.438;-0.010;2022-07-05T09:25:42;19.40;98.10
41310;DHT22;27057;51.438;-0.010;2022-07-05T09:28:09;19.20;97.60
41310;DHT22;27057;51.438;-0.010;2022-07-05T09:30:38;19.50;97.70
41310;DHT22;27057;51.438;-0.010;2022-07-05T09:33:10;19.50;97.90
41310;DHT22;27057;51.438;-0.010;2022-07-05T09:35:40;19.60;98.20
41310;DHT22;27057;51.438;-0.010;2022-07-05T09:38:18;19.30;97.90
41310;DHT22;27057;51.438;-0.010;2022-07-05T09:40:57;19.30;98.10
41310;DHT22;27057;51.438;-0.010;2022-07-05T09:43:26;19.30;98.50
41310;DHT22;27057;51.438;-0.010;2022-07-05T09:46:00;19.60;98.60
41310;DHT22;27057;51.438;-0.010;2022-07-05T09:48:30;19.40;97.20
41310;DHT22;27057;51.438;-0.010;2022-07-05T09:51:09;19.70;98.00
41310;DHT22;27057;51.438;-0.010;2022-07-05T09:53:58;19.70;97.60
41310;DHT22;27057;51.438;-0.010;2022-07-05T09:56:29;20.00;97.50
41310;DHT22;27057;51.438;-0.010;2022-07-05T09:59:12;19.80;96.60
41310;DHT22;27057;51.438;-0.010;2022-07-05T10:01:40;20.00;96.80
41310;DHT22;27057;51.438;-0.010;2022-07-05T10:04:08;20.20;97.30
41310;DHT22;27057;51.438;-0.010;2022-07-05T10:06:36;20.10;96.40
41310;DHT22;27057;51.438;-0.010;2022-07-05T10:09:04;20.20;96.70
41310;DHT22;27057;51.438;-0.010;2022-07-05T10:11:32;20.10;96.80
41310;DHT22;27057;51.438;-0.010;2022-07-05T10:14:03;20.40;97.30
41310;DHT22;27057;51.438;-0.010;2022-07-05T10:16:35;20.40;97.00
41310;DHT22;27057;51.438;-0.010;2022-07-05T10:19:03;20.10;96.80
41310;DHT22;27057;51.438;-0.010;2022-07-05T10:21:32;20.40;97.10
41310;DHT22;27057;51.438;-0.010;2022-07-05T10:24:20;20.00;96.90
41310;DHT22;27057;51.438;-0.010;2022-07-05T10:26:47;20.50;96.60
41310;DHT22;27057;51.438;-0.010;2022-07-05T10:29:15;20.30;96.20
41310;DHT22;27057;51.438;-0.010;2022-07-05T10:31:44;20.50;96.10
41310;DHT22;27057;51.438;-0.010;2022-07-05T10:34:13;20.30;96.60
41310;DHT22;27057;51.438;-0.010;2022-07-05T10:37:01;20.30;96.80
41310;DHT22;27057;51.438;-0.010;2022-07-05T10:39:28;20.40;96.20
41310;DHT22;27057;51.438;-0.010;2022-07-05T10:41:57;20.40;96.60
41310;DHT22;27057;51.438;-0.010;2022-07-05T10:44:35;20.40;96.30
41310;DHT22;27057;51.438;-0.010;2022-07-05T10:47:09;20.40;96.80
41310;DHT22;27057;51.438;-0.010;2022-07-05T10:49:40;20.50;96.90
41310;DHT22;27057;51.438;-0.010;2022-07-05T10:52:24;20.70;99.90
41310;DHT22;27057;51.438;-0.010;2022-07-05T11:00:45;20.20;95.80
41310;DHT22;27057;51.438;-0.010;2022-07-05T11:03:32;20.30;97.10
41310;DHT22;27057;51.438;-0.010;2022-07-05T11:06:01;20.10;97.40
41310;DHT22;27057;51.438;-0.010;2022-07-05T11:11:28;20.90;99.90
41310;DHT22;27057;51.438;-0.010;2022-07-05T11:13:58;20.60;97.30
41310;DHT22;27057;51.438;-0.010;2022-07-05T11:19:09;20.50;96.70
41310;DHT22;27057;51.438;-0.010;2022-07-05T11:21:39;20.70;96.60
41310;DHT22;27057;51.438;-0.010;2022-07-05T11:24:34;20.90;96.10
41310;DHT22;27057;51.438;-0.010;2022-07-05T11:27:09;21.00;95.80
41310;DHT22;27057;51.438;-0.010;2022-07-05T11:29:50;21.10;95.20
41310;DHT22;27057;51.438;-0.010;2022-07-05T11:32:20;21.30;95.70
41310;DHT22;27057;51.438;-0.010;2022-07-05T11:34:53;21.60;99.90
41310;DHT22;27057;51.438;-0.010;2022-07-05T11:37:26;21.60;95.10
41310;DHT22;27057;51.438;-0.010;2022-07-05T11:42:50;21.50;94.50
41310;DHT22;27057;51.438;-0.010;2022-07-05T11:45:18;21.90;94.50
41310;DHT22;27057;51.438;-0.010;2022-07-05T11:47:45;21.80;94.20
41310;DHT22;27057;51.438;-0.010;2022-07-05T11:50:13;21.90;93.90
41310;DHT22;27057;51.438;-0.010;2022-07-05T11:52:41;22.10;94.10
41310;DHT22;27057;51.438;-0.010;2022-07-05T11:55:10;22.00;93.90
41310;DHT22;27057;51.438;-0.010;2022-07-05T11:57:48;21.90;94.20
41310;DHT22;27057;51.438;-0.010;2022-07-05T12:00:36;22.00;94.70
41310;DHT22;27057;51.438;-0.010;2022-07-05T12:03:13;22.10;94.20
41310;DHT22;27057;51.438;-0.010;2022-07-05T12:05:41;21.50;99.90
41310;DHT22;27057;51.438;-0.010;2022-07-05T12:08:09;22.10;99.90
41310;DHT22;27057;51.438;-0.010;2022-07-05T12:10:37;21.80;94.40
41310;DHT22;27057;51.438;-0.010;2022-07-05T12:13:46;22.00;93.90
41310;DHT22;27057;51.438;-0.010;2022-07-05T12:16:14;22.10;93.80
41310;DHT22;27057;51.438;-0.010;2022-07-05T12:18:57;21.90;93.80
41310;DHT22;27057;51.438;-0.010;2022-07-05T12:21:28;21.80;93.80
41310;DHT22;27057;51.438;-0.010;2022-07-05T12:23:56;21.90;94.60
41310;DHT22;27057;51.438;-0.010;2022-07-05T12:26:23;21.80;94.50
41310;DHT22;27057;51.438;-0.010;2022-07-05T12:28:51;21.90;94.40
41310;DHT22;27057;51.438;-0.010;2022-07-05T12:31:23;22.10;94.20
41310;DHT22;27057;51.438;-0.010;2022-07-05T12:33:51;22.10;94.30
41310;DHT22;27057;51.438;-0.010;2022-07-05T12:36:21;22.40;94.30
41310;DHT22;27057;51.438;-0.010;2022-07-05T12:39:00;22.60;94.40
41310;DHT22;27057;51.438;-0.010;2022-07-05T12:41:28;23.00;94.20
41310;DHT22;27057;51.438;-0.010;2022-07-05T12:43:58;23.00;93.20
41310;DHT22;27057;51.438;-0.010;2022-07-05T12:46:39;22.90;93.70
41310;DHT22;27057;51.438;-0.010;2022-07-05T12:49:10;22.80;94.10
41310;DHT22;27057;51.438;-0.010;2022-07-05T12:51:40;22.60;94.20
41310;DHT22;27057;51.438;-0.010;2022-07-05T12:54:20;22.60;94.20
41310;DHT22;27057;51.438;-0.010;2022-07-05T12:57:07;22.40;94.70
41310;DHT22;27057;51.438;-0.010;2022-07-05T13:00:11;22.30;94.90
41310;DHT22;27057;51.438;-0.010;2022-07-05T13:02:45;22.20;94.70
41310;DHT22;27057;51.438;-0.010;2022-07-05T13:05:21;22.30;99.90
41310;DHT22;27057;51.438;-0.010;2022-07-05T13:07:51;22.30;94.90
41310;DHT22;27057;51.438;-0.010;2022-07-05T13:10:22;22.30;95.60
41310;DHT22;27057;51.438;-0.010;2022-07-05T13:12:50;22.60;95.60
41310;DHT22;27057;51.438;-0.010;2022-07-05T13:15:18;22.40;95.20
41310;DHT22;27057;51.438;-0.010;2022-07-05T13:17:46;22.50;95.10
41310;DHT22;27057;51.438;-0.010;2022-07-05T13:20:15;22.70;95.00
41310;DHT22;27057;51.438;-0.010;2022-07-05T13:22:46;23.00;95.10
41310;DHT22;27057;51.438;-0.010;2022-07-05T13:25:14;23.00;94.70
41310;DHT22;27057;51.438;-0.010;2022-07-05T13:27:41;23.00;94.50
41310;DHT22;27057;51.438;-0.010;2022-07-05T13:30:09;23.00;94.40
41310;DHT22;27057;51.438;-0.010;2022-07-05T13:32:37;22.80;94.60
41310;DHT22;27057;51.438;-0.010;2022-07-05T13:35:05;23.00;94.90
41310;DHT22;27057;51.438;-0.010;2022-07-05T13:37:32;22.90;94.50
41310;DHT22;27057;51.438;-0.010;2022-07-05T13:39:59;22.90;95.10
41310;DHT22;27057;51.438;-0.010;2022-07-05T13:42:27;22.90;94.40
41310;DHT22;27057;51.438;-0.010;2022-07-05T13:44:54;23.10;94.90
41310;DHT22;27057;51.438;-0.010;2022-07-05T13:47:21;23.40;94.70
41310;DHT22;27057;51.438;-0.010;2022-07-05T13:49:49;23.70;93.60
41310;DHT22;27057;51.438;-0.010;2022-07-05T13:52:36;23.80;93.40
41310;DHT22;27057;51.438;-0.010;2022-07-05T13:55:04;23.50;93.80
41310;DHT22;27057;51.438;-0.010;2022-07-05T13:57:31;23.20;93.90
41310;DHT22;27057;51.438;-0.010;2022-07-05T13:59:59;22.90;94.60
41310;DHT22;27057;51.438;-0.010;2022-07-05T14:02:26;22.80;94.30
41310;DHT22;27057;51.438;-0.010;2022-07-05T14:04:53;22.60;94.60
41310;DHT22;27057;51.438;-0.010;2022-07-05T14:07:21;22.50;95.00
41310;DHT22;27057;51.438;-0.010;2022-07-05T14:09:48;22.60;95.00
41310;DHT22;27057;51.438;-0.010;2022-07-05T14:12:15;22.80;94.70
41310;DHT22;27057;51.438;-0.010;2022-07-05T14:14:43;23.10;94.50
41310;DHT22;27057;51.438;-0.010;2022-07-05T14:17:10;23.40;94.50
41310;DHT22;27057;51.438;-0.010;2022-07-05T14:19:37;23.50;93.90
41310;DHT22;27057;51.438;-0.010;2022-07-05T14:22:05;23.30;94.10
41310;DHT22;27057;51.438;-0.010;2022-07-05T14:24:32;23.10;94.10
41310;DHT22;27057;51.438;-0.010;2022-07-05T14:27:00;22.90;94.30
41310;DHT22;27057;51.438;-0.010;2022-07-05T14:29:28;23.00;94.70
41310;DHT22;27057;51.438;-0.010;2022-07-05T14:31:55;22.80;94.50
41310;DHT22;27057;51.438;-0.010;2022-07-05T14:34:23;22.80;95.00
41310;DHT22;27057;51.438;-0.010;2022-07-05T14:36:50;22.90;94.60
41310;DHT22;27057;51.438;-0.010;2022-07-05T14:39:17;22.90;94.50
41310;DHT22;27057;51.438;-0.010;2022-07-05T14:41:46;23.00;94.70
41310;DHT22;27057;51.438;-0.010;2022-07-05T14:44:14;23.50;94.50
41310;DHT22;27057;51.438;-0.010;2022-07-05T14:46:42;23.80;94.20
41310;DHT22;27057;51.438;-0.010;2022-07-05T14:49:10;24.00;93.50
41310;DHT22;27057;51.438;-0.010;2022-07-05T14:51:37;24.00;93.80
41310;DHT22;27057;51.438;-0.010;2022-07-05T14:54:05;23.80;93.80
41310;DHT22;27057;51.438;-0.010;2022-07-05T14:56:32;23.70;93.80
41310;DHT22;27057;51.438;-0.010;2022-07-05T14:59:00;24.00;94.10
41310;DHT22;27057;51.438;-0.010;2022-07-05T15:01:27;24.20;93.20
41310;DHT22;27057;51.438;-0.010;2022-07-05T15:03:55;24.10;93.50
41310;DHT22;27057;51.438;-0.010;2022-07-05T15:06:24;24.20;93.40
41310;DHT22;27057;51.438;-0.010;2022-07-05T15:08:54;24.20;92.80
41310;DHT22;27057;51.438;-0.010;2022-07-05T15:11:27;24.20;93.30
41310;DHT22;27057;51.438;-0.010;2022-07-05T15:13:56;24.30;93.10
41310;DHT22;27057;51.438;-0.010;2022-07-05T15:16:39;24.90;92.10
41310;DHT22;27057;51.438;-0.010;2022-07-05T15:19:13;25.00;91.80
41310;DHT22;27057;51.438;-0.010;2022-07-05T15:21:51;25.20;92.00
41310;DHT22;27057;51.438;-0.010;2022-07-05T15:24:19;24.90;91.80
41310;DHT22;27057;51.438;-0.010;2022-07-05T15:26:52;24.60;91.90
41310;DHT22;27057;51.438;-0.010;2022-07-05T15:29:39;24.50;91.80
41310;DHT22;27057;51.438;-0.010;2022-07-05T15:32:10;24.70;91.80
41310;DHT22;27057;51.438;-0.010;2022-07-05T15:34:41;25.30;90.90
41310;DHT22;27057;51.438;-0.010;2022-07-05T15:37:09;25.90;90.70
41310;DHT22;27057;51.438;-0.010;2022-07-05T15:39:36;26.20;90.60
41310;DHT22;27057;51.438;-0.010;2022-07-05T15:42:05;26.20;90.50
41310;DHT22;27057;51.438;-0.010;2022-07-05T15:44:32;26.00;90.30
41310;DHT22;27057;51.438;-0.010;2022-07-05T15:47:12;25.60;90.70
41310;DHT22;27057;51.438;-0.010;2022-07-05T15:50:28;25.20;91.00